Aeroporto :
LOGIN :

Iscrizione | Disclaimer

   EN    FR    IT 

 










Sommario :    VFR   VFR Marginale   IFR   IFR Intensivo   IFR Molto Intensivo
Visibilità : 
Base nubi : 
>= 8 km
>= 3000ft
5 / 8 km
1000 / 3000 ft
1500m / 5 km
500 / 1000 ft
800 / 1500m
200 / 500 ft
< 800m
< 200 ft
Simboli :   Temporali  Nebbia  Neve Forte  Precipitazioni Forti  Vento > 20 kt
SIGMETs :   Varie  Temporali  Ghiacco  Turbolenza  Onda orograficha  Ceneri Vulcaniche






- Altitudine del aeroporto : 392 ft
- Codice IATA : CDG


LFPG - Paris-Aeroport Charles De Gaulle

ULTIMO METAR :
  • 140600Z 11011KT CAVOK 15/13 Q1009 NOSIG

METARs OBSOLETI :
  • 140530Z 11011KT CAVOK 15/13 Q1009 NOSIG
  • 140500Z 10010KT CAVOK 15/13 Q1010 NOSIG
  • 140430Z 09010KT 9999 SCT033 SCT100 15/12 Q1010 NOSIG
  • 140400Z 08007KT 9999 BKN031 SCT040 15/12 Q1010 NOSIG
  • 140330Z 06006KT 9999 SCT031 BKN040 BKN100 15/12 Q1011 NOSIG

TAF TAF LFPG
Valido dal 14 a 06 ore il 15 a 12 ore UTC


140500Z 1406/1512 13010KT CAVOK TX22/1415Z TN14/1506Z
PROB40
TEMPO 1413/1420 17015G25KT 4000 SHRA SCT040CB
PROB40
TEMPO 1418/1419 20020G45KT 2000 TSRAGR
BECMG 1419/1421 21012KT BKN020
PROB40
TEMPO 1423/1506 4000 -RA BKN012 BKN040
PROB40
TEMPO 1507/1512 4000 -SHRA
ATIS : +33 1 48 62 10 92



MetMap, La meteo Aeronautica in un colpo d'occhio ! - Copyright ORBIFLY Dicembre 2007 - Disclaimer

ORBIFLY MET'MAP TEAM :

Programmazione e sviluppo : Alexandra Zaïnal
Concezione e sviluppo : Baudouin d'Aumeries
Co-Programmazione e sviluppo : Marc-Olivier Méhu
Supporto tecnico e logistico : Manuel Goepfert
Aiuto per la traduzione : Arnaldo La Scala

Contatto : metmap@orbifly.com




FONTI E CREDITI :

   NOAA